Tiff City, MO (64868)

11:19 AM CST on February 19, 2017 (GMT -0600)
Grove Municipal | | Change Station

Elev 830 ft 36.60 °N, 94.74 °W | Updated 4 minutes ago

Partly Cloudy
Partly Cloudy
68 °F
Feels Like 68 °F
N
8
Wind Variable Wind from South

Today
High -- | Low -- °F
--% Chance of Precip.
Yesterday
High -- | Low -- °F
Precip. -- in
Pressure 30.01 in
Visibility 10.0 miles
Clouds Scattered Clouds 1300 ft
Scattered Clouds 1900 ft
Dew Point 59 °F
Humidity 73%
Rainfall 0.00 in
Snow Depth Not available.
7:01 AM 6:03 PM
Last Quarter, 42% visible
METAR KGMJ 191715Z AUTO 17007KT 10SM SCT013 SCT019 20/15 A3001 RMK AO2
Pressure 30.01 in
Visibility 10.0 miles
Clouds Scattered Clouds 1300 ft
Scattered Clouds 1900 ft
Dew Point 59 °F
Humidity 73%
Rainfall 0.00 in
Snow Depth Not available.
7:01 AM 6:03 PM
Last Quarter, 42% visible
METAR KGMJ 191715Z AUTO 17007KT 10SM SCT013 SCT019 20/15 A3001 RMK AO2

Get Your Daily Forecast Email!

Thanks for signing up!

Be on the lookout for a verification email in your inbox.

You'll start receiving the daily forecast at 8 AM.

×

10-Day Weather Forecast

Almanac

Astronomy

Feb. 19, 2017 Rise Set
Actual Time
Civil Twilight
Nautical Twilight
Astronomical Twilight
Moon
Length of Visible Light
Length of Day
Tomorrow will be .
, % of the Moon is Illuminated

Today's Extremes

State Highs State Lows

Community

WunderPhotos

Upload Photos

1,962,540 photos uploaded!

WunderBlog® & News

Nearby

Air Quality

  Air Quality AQ Index Pollutant
Not available.

Snow Depth

Station Depth Elevation

Earthquake Activity

City Distance Mag. Time & Date
Minimum magnitude displayed is 2.5.

Coastal Water Temperatures

Place Temperature

Stations

Nearby Weather Stations

Station Location Temp. Windchill Dew Point Humidity Wind Precip. Elev Updated Type
                   

Watches & Warnings

There are currently no watches in effect.